Time;durP1;ratioP1;P1;durP2;ratioP2;P2;SDS_P1;SDS_P2;PMS_P1;PMS_P2;Temp;Humidity;BMP_temperature;BMP_pressure;BME280_temperature;BME280_humidity;BME280_pressure;Samples;Min_cycle;Max_cycle;Signal;HPM_P1;HPM_P2
2021/09/08 00:01:45;;;;;;;10.15;7.30;;;;;;;10.83;83.87;97069.63;6307423;22;20011;-93
2021/09/08 00:04:10;;;;;;;10.10;7.18;;;;;;;10.67;84.10;97056.97;6307280;22;19999;-93
2021/09/08 00:06:36;;;;;;;11.27;7.30;;;;;;;10.81;83.80;97083.63;6307595;22;20366;-93
2021/09/08 00:09:01;;;;;;;13.52;7.25;;;;;;;10.62;84.09;97063.72;6307419;22;20007;-94
2021/09/08 00:11:27;;;;;;;9.00;7.00;;;;;;;10.70;84.25;97062.25;6307344;22;20177;-93
2021/09/08 00:13:52;;;;;;;11.05;7.38;;;;;;;10.60;83.20;97073.50;6307595;22;20010;-93
2021/09/08 00:16:18;;;;;;;11.25;7.97;;;;;;;10.65;83.54;97079.16;6307378;22;20007;-93
2021/09/08 00:18:44;;;;;;;9.93;7.35;;;;;;;10.56;84.67;97076.34;6307251;22;20007;-93
2021/09/08 00:21:10;;;;;;;15.32;7.72;;;;;;;10.46;84.52;97072.78;6307466;22;20011;-94
2021/09/08 00:23:35;;;;;;;8.95;6.85;;;;;;;10.49;84.69;97065.72;6307790;22;20443;-93
2021/09/08 00:26:01;;;;;;;9.70;6.93;;;;;;;10.53;84.65;97065.59;6309498;22;20008;-94
2021/09/08 00:28:26;;;;;;;9.77;7.25;;;;;;;10.42;84.62;97064.00;6309717;22;19999;-94
2021/09/08 00:30:52;;;;;;;11.05;7.18;;;;;;;10.59;84.81;97075.47;6305927;22;20048;-92
2021/09/08 00:33:17;;;;;;;11.40;7.80;;;;;;;10.71;84.83;97093.69;6252848;22;20008;-94
2021/09/08 00:35:43;;;;;;;10.23;7.65;;;;;;;10.74;84.98;97089.31;6252721;22;20006;-94
2021/09/08 00:38:10;;;;;;;13.40;8.20;;;;;;;10.71;85.34;97085.53;6252793;22;20473;-94
2021/09/08 00:40:36;;;;;;;8.23;7.10;;;;;;;10.64;84.57;97074.91;6252909;22;20007;-94
2021/09/08 00:43:01;;;;;;;11.52;8.00;;;;;;;10.75;85.27;97075.28;6252771;22;20006;-93
2021/09/08 00:45:27;;;;;;;9.85;7.55;;;;;;;10.59;82.93;97066.56;6252763;22;20329;-92
2021/09/08 00:47:53;;;;;;;10.23;7.20;;;;;;;10.53;83.69;97069.06;6252494;22;20030;-93
2021/09/08 00:50:18;;;;;;;9.93;7.43;;;;;;;10.78;84.09;97102.78;6252446;22;19999;-93
2021/09/08 00:52:47;;;;;;;9.60;7.60;;;;;;;10.64;84.62;97090.44;6252641;22;20431;-93
2021/09/08 00:55:13;;;;;;;9.90;7.38;;;;;;;10.63;84.23;97099.78;6252540;22;20007;-92
2021/09/08 00:57:39;;;;;;;11.50;7.53;;;;;;;10.64;84.54;97098.59;6252055;22;20008;-93
2021/09/08 01:00:06;;;;;;;8.15;7.07;;;;;;;10.70;84.60;97113.88;6252502;22;20008;-93
2021/09/08 01:02:32;;;;;;;10.57;6.90;;;;;;;10.66;84.44;97088.81;6252212;22;20007;-94
2021/09/08 01:04:58;;;;;;;10.98;7.50;;;;;;;10.51;82.70;97095.94;6252458;22;20008;-93
2021/09/08 01:07:23;;;;;;;9.38;7.30;;;;;;;10.48;84.56;97081.25;6252467;22;20427;-93
2021/09/08 01:09:50;;;;;;;10.60;7.63;;;;;;;10.66;83.79;97110.56;6252734;22;20004;-93
2021/09/08 01:12:16;;;;;;;11.73;7.88;;;;;;;10.62;83.97;97101.75;6252434;22;20003;-93
2021/09/08 01:14:43;;;;;;;9.70;7.75;;;;;;;10.62;84.08;97109.16;6252312;22;20420;-94
2021/09/08 01:17:09;;;;;;;8.80;7.30;;;;;;;10.34;83.61;97081.75;6252340;22;20004;-95
2021/09/08 01:19:35;;;;;;;8.65;7.32;;;;;;;10.39;84.58;97086.63;6252413;22;20057;-93
2021/09/08 01:22:01;;;;;;;14.35;7.63;;;;;;;10.42;84.23;97099.31;6252317;22;20011;-94
2021/09/08 01:24:26;;;;;;;11.13;7.57;;;;;;;10.33;84.20;97082.16;6252413;22;19999;-93
2021/09/08 01:26:55;;;;;;;9.50;7.50;;;;;;;10.42;84.07;97103.97;6252267;22;20004;-93
2021/09/08 01:29:21;;;;;;;12.88;7.68;;;;;;;10.28;83.91;97086.22;6252734;22;20487;-93
2021/09/08 01:31:55;;;;;;;25.67;8.23;;;;;;;10.30;83.88;97091.97;6276913;22;20363;-93
2021/09/08 01:34:21;;;;;;;10.30;7.30;;;;;;;10.10;83.52;97072.41;6308590;22;20442;-93
2021/09/08 01:36:47;;;;;;;15.82;7.30;;;;;;;10.16;84.66;97070.66;6308337;22;20003;-94
2021/09/08 01:39:16;;;;;;;11.82;7.22;;;;;;;10.17;84.23;97069.47;6308692;22;20030;-93
2021/09/08 01:41:43;;;;;;;10.43;7.25;;;;;;;10.22;83.87;97094.09;6308746;22;20027;-93
2021/09/08 01:44:08;;;;;;;10.52;7.30;;;;;;;10.15;83.79;97088.16;6308691;22;20507;-94
2021/09/08 01:46:34;;;;;;;9.35;6.88;;;;;;;10.09;83.79;97089.91;6308924;22;20042;-94
2021/09/08 01:49:00;;;;;;;9.80;7.32;;;;;;;10.00;83.59;97081.66;6308728;22;20502;-94
2021/09/08 01:51:25;;;;;;;9.65;7.05;;;;;;;9.92;83.96;97070.28;6308629;22;20419;-93
2021/09/08 01:53:51;;;;;;;11.98;7.97;;;;;;;10.09;83.71;97101.50;6308573;22;20014;-94
2021/09/08 01:56:17;;;;;;;11.88;7.50;;;;;;;9.95;83.95;97082.97;6308598;22;20324;-93
2021/09/08 01:58:43;;;;;;;11.98;7.20;;;;;;;10.08;83.85;97107.38;6308555;22;20003;-94
2021/09/08 02:01:08;;;;;;;8.82;6.88;;;;;;;9.86;83.19;97064.63;6308535;22;20007;-94
2021/09/08 02:03:34;;;;;;;9.65;7.85;;;;;;;9.85;84.03;97073.94;6334571;22;19999;-94
2021/09/08 02:05:59;;;;;;;10.63;7.47;;;;;;;9.85;83.56;97081.34;6308342;22;20420;-93
2021/09/08 02:08:26;;;;;;;9.40;6.57;;;;;;;9.92;84.69;97086.56;6308587;22;20003;-94
2021/09/08 02:10:51;;;;;;;10.38;7.30;;;;;;;9.77;83.29;97069.97;6308396;22;20037;-93
2021/09/08 02:13:17;;;;;;;12.52;7.40;;;;;;;9.73;83.56;97066.59;6308589;22;19999;-93
2021/09/08 02:15:42;;;;;;;31.70;8.60;;;;;;;9.92;84.70;97092.00;6308317;22;20000;-95
2021/09/08 02:18:08;;;;;;;9.63;7.20;;;;;;;9.83;83.78;97087.22;6308308;22;20041;-94
2021/09/08 02:20:34;;;;;;;11.32;7.10;;;;;;;9.79;83.49;97088.50;6308317;22;20003;-95
2021/09/08 02:22:59;;;;;;;8.70;6.82;;;;;;;9.88;83.50;97108.38;6334312;22;20088;-93
2021/09/08 02:25:24;;;;;;;13.00;7.43;;;;;;;9.69;83.38;97084.91;6307996;22;20317;-93
2021/09/08 02:27:50;;;;;;;13.52;7.20;;;;;;;9.56;84.21;97065.19;6308287;22;20006;-94
2021/09/08 02:30:16;;;;;;;11.27;7.43;;;;;;;9.67;83.10;97095.44;6308240;22;20007;-93
2021/09/08 02:32:42;;;;;;;12.35;7.00;;;;;;;9.83;83.52;97108.91;6308031;22;20344;-93
2021/09/08 02:35:08;;;;;;;12.07;7.50;;;;;;;9.68;83.85;97089.59;6334488;22;20007;-93
2021/09/08 02:37:34;;;;;;;10.93;7.07;;;;;;;9.48;83.68;97074.72;6308129;22;20153;-92
2021/09/08 02:40:00;;;;;;;10.73;7.32;;;;;;;9.58;83.26;97089.91;6308191;22;20023;-93
2021/09/08 02:42:25;;;;;;;10.95;7.15;;;;;;;9.46;83.16;97077.88;6308101;22;20356;-94
2021/09/08 02:44:51;;;;;;;10.23;7.30;;;;;;;9.34;83.81;97068.53;6307991;22;20015;-93
2021/09/08 02:47:17;;;;;;;11.00;7.13;;;;;;;9.55;83.46;97093.50;6307619;22;20424;-94
2021/09/08 02:49:43;;;;;;;10.70;7.35;;;;;;;9.43;83.05;97084.16;6308095;22;19999;-94
2021/09/08 02:52:09;;;;;;;11.85;7.43;;;;;;;9.61;83.22;97116.94;6308121;22;20007;-93
2021/09/08 02:54:35;;;;;;;10.63;6.97;;;;;;;9.43;83.23;97084.91;6334135;22;19999;-93
2021/09/08 02:57:01;;;;;;;11.00;8.38;;;;;;;9.35;83.62;97080.88;6307971;22;20007;-94
2021/09/08 02:59:27;;;;;;;11.02;8.20;;;;;;;9.34;83.85;97079.38;6308096;22;20132;-94
2021/09/08 03:01:53;;;;;;;11.05;8.07;;;;;;;9.44;83.29;97100.00;6307925;22;20049;-94
2021/09/08 03:04:19;;;;;;;9.80;7.00;;;;;;;9.29;82.98;97074.47;6307672;22;20078;-95
2021/09/08 03:06:47;;;;;;;10.07;7.45;;;;;;;9.32;83.21;97086.41;6308093;22;20046;-93
2021/09/08 03:09:13;;;;;;;9.93;7.10;;;;;;;9.23;82.83;97078.94;6307979;22;20037;-93
2021/09/08 03:11:39;;;;;;;11.15;7.55;;;;;;;9.24;82.90;97083.16;6307743;22;20004;-94
2021/09/08 03:14:05;;;;;;;11.82;7.15;;;;;;;9.31;83.06;97099.19;6307933;22;20074;-93
2021/09/08 03:16:30;;;;;;;10.85;7.25;;;;;;;9.28;83.09;97093.91;6307795;22;20007;-94
2021/09/08 03:18:56;;;;;;;10.50;7.15;;;;;;;9.31;83.95;97098.44;6308029;22;20030;-93
2021/09/08 03:21:22;;;;;;;32.40;8.10;;;;;;;9.22;83.35;97071.22;6308120;22;20006;-93
2021/09/08 03:23:47;;;;;;;13.73;7.18;;;;;;;9.18;83.68;97082.91;6307618;22;20049;-94
2021/09/08 03:26:14;;;;;;;11.15;7.20;;;;;;;9.13;82.93;97067.19;6307551;22;20335;-93
2021/09/08 03:28:39;;;;;;;11.32;7.50;;;;;;;9.08;83.74;97075.84;6307852;22;20007;-93
2021/09/08 03:31:05;;;;;;;11.10;7.82;;;;;;;9.14;83.97;97086.91;6307716;22;20011;-93
2021/09/08 03:33:31;;;;;;;11.70;7.32;;;;;;;8.99;83.23;97066.81;6307881;22;20018;-93
2021/09/08 03:35:56;;;;;;;8.77;7.15;;;;;;;9.00;83.71;97069.13;6307781;22;20332;-93
2021/09/08 03:38:22;;;;;;;12.20;7.22;;;;;;;9.26;83.88;97105.16;6307517;22;20007;-93
2021/09/08 03:40:48;;;;;;;12.85;7.65;;;;;;;9.15;84.01;97096.56;6307781;22;20427;-92
2021/09/08 03:43:13;;;;;;;9.90;6.47;;;;;;;9.07;83.13;97085.16;6307778;22;20003;-94
2021/09/08 03:45:39;;;;;;;9.25;6.85;;;;;;;8.92;83.48;97065.84;6307564;22;20007;-93
2021/09/08 03:48:05;;;;;;;13.52;6.75;;;;;;;8.91;84.20;97075.16;6307570;22;20007;-93
2021/09/08 03:50:31;;;;;;;11.43;7.82;;;;;;;8.87;83.82;97062.91;6307662;22;20007;-93
2021/09/08 03:52:57;;;;;;;11.80;7.57;;;;;;;8.97;83.85;97091.66;6307727;22;20010;-93
2021/09/08 03:55:22;;;;;;;11.73;7.80;;;;;;;8.92;83.84;97073.97;6307553;22;20428;-94
2021/09/08 03:57:48;;;;;;;9.68;7.15;;;;;;;9.10;84.84;97088.97;6307327;22;20007;-93
2021/09/08 04:00:13;;;;;;;14.05;7.90;;;;;;;9.06;85.15;97075.53;6308220;22;20443;-93
2021/09/08 04:02:39;;;;;;;23.70;7.88;;;;;;;9.04;85.12;97079.84;6307642;22;20006;-94
2021/09/08 04:05:05;;;;;;;10.85;7.75;;;;;;;8.91;85.01;97060.84;6307973;22;20003;-94
2021/09/08 04:07:31;;;;;;;11.80;7.55;;;;;;;9.07;84.19;97085.16;6307442;22;20015;-94
2021/09/08 04:09:56;;;;;;;10.35;7.32;;;;;;;9.06;84.51;97088.31;6307831;22;20035;-94
2021/09/08 04:12:22;;;;;;;10.90;7.32;;;;;;;8.95;84.89;97063.44;6307941;22;20097;-94
2021/09/08 04:14:47;;;;;;;10.38;7.70;;;;;;;9.02;85.40;97068.69;6307760;22;20493;-95
2021/09/08 04:17:13;;;;;;;10.55;7.50;;;;;;;9.01;85.04;97084.19;6307476;22;20007;-94
2021/09/08 04:19:39;;;;;;;10.90;7.57;;;;;;;9.04;85.37;97074.44;6307838;22;20003;-94
2021/09/08 04:22:04;;;;;;;13.70;8.18;;;;;;;9.05;85.52;97084.06;6307762;22;20313;-93
2021/09/08 04:24:30;;;;;;;9.70;7.53;;;;;;;9.36;86.12;97120.34;6307087;22;20428;-93
2021/09/08 04:26:56;;;;;;;11.77;7.90;;;;;;;9.23;85.83;97095.19;6307556;22;20042;-94
2021/09/08 04:29:21;;;;;;;11.18;7.50;;;;;;;9.22;86.09;97098.34;6307814;22;20093;-93
2021/09/08 04:31:47;;;;;;;10.98;7.82;;;;;;;9.31;86.40;97096.50;6307503;22;20148;-93
2021/09/08 04:34:13;;;;;;;11.95;7.88;;;;;;;9.31;86.10;97103.88;6307430;22;20052;-94
2021/09/08 04:36:38;;;;;;;10.82;8.35;;;;;;;9.34;86.44;97100.31;6307313;22;20007;-95
2021/09/08 04:39:04;;;;;;;11.82;8.25;;;;;;;9.41;87.49;97119.81;6307334;22;20088;-94
2021/09/08 04:41:30;;;;;;;28.15;9.57;;;;;;;9.28;87.86;97080.34;6307854;22;20335;-93
2021/09/08 04:43:56;;;;;;;13.65;8.27;;;;;;;9.42;86.92;97096.19;6307413;22;20003;-93
2021/09/08 04:46:45;;;;;;;14.77;7.80;;;;;;;9.70;85.77;97136.03;6307657;22;20390;-94
2021/09/08 04:49:11;;;;;;;12.90;8.70;;;;;;;9.59;85.72;97105.00;6307237;22;20090;-94
2021/09/08 04:51:36;;;;;;;14.85;10.13;;;;;;;9.63;86.23;97113.78;6307348;22;20026;-95
2021/09/08 04:54:02;;;;;;;23.65;10.63;;;;;;;9.65;85.96;97098.59;6307113;22;20450;-94
2021/09/08 04:56:28;;;;;;;18.90;11.18;;;;;;;9.85;85.96;97124.75;6311655;22;20007;-94
2021/09/08 04:58:54;;;;;;;19.63;11.93;;;;;;;9.64;87.27;97096.31;6308839;22;20003;-94
2021/09/08 05:01:20;;;;;;;17.30;11.15;;;;;;;9.79;87.31;97121.81;6307179;22;20344;-94
2021/09/08 05:03:45;;;;;;;17.95;11.95;;;;;;;9.89;86.82;97123.44;6307318;22;20007;-95
2021/09/08 05:06:11;;;;;;;22.40;12.63;;;;;;;9.85;86.34;97114.66;6307312;22;20042;-94
2021/09/08 05:08:36;;;;;;;18.23;11.70;;;;;;;9.91;86.34;97115.66;6307266;22;20007;-94
2021/09/08 05:11:02;;;;;;;21.17;12.38;;;;;;;10.03;87.46;97132.34;6307958;22;20007;-94
2021/09/08 05:13:27;;;;;;;20.50;12.00;;;;;;;9.91;86.22;97115.66;6309176;22;20094;-94
2021/09/08 05:15:53;;;;;;;18.55;11.75;;;;;;;9.90;86.21;97103.25;6309327;22;19995;-94
2021/09/08 05:18:18;;;;;;;25.35;12.40;;;;;;;10.20;87.05;97144.59;6309024;22;20003;-95
2021/09/08 05:20:44;;;;;;;23.92;12.32;;;;;;;10.08;87.19;97132.56;6308927;22;20006;-96
2021/09/08 05:23:10;;;;;;;23.30;11.80;;;;;;;10.27;85.56;97159.94;6308674;22;20007;-95
2021/09/08 05:25:35;;;;;;;22.27;12.65;;;;;;;10.07;86.58;97122.91;6308858;22;20026;-94
2021/09/08 05:28:01;;;;;;;19.10;11.13;;;;;;;10.19;86.29;97135.72;6308997;22;20066;-94
2021/09/08 05:30:26;;;;;;;15.60;10.10;;;;;;;10.11;86.10;97126.25;6308907;22;20014;-94
2021/09/08 05:32:52;;;;;;;17.77;10.30;;;;;;;10.15;85.60;97135.06;6308727;22;20317;-94
2021/09/08 05:35:18;;;;;;;21.67;10.80;;;;;;;10.11;86.22;97111.94;6308827;22;20007;-94
2021/09/08 05:37:44;;;;;;;28.67;15.57;;;;;;;10.19;85.87;97124.09;6308968;22;20440;-95
2021/09/08 05:40:10;;;;;;;33.67;16.60;;;;;;;10.24;85.51;97134.44;6308668;22;20432;-95
2021/09/08 05:42:37;;;;;;;31.25;17.02;;;;;;;10.17;85.55;97116.41;6308576;22;20014;-95
2021/09/08 05:45:03;;;;;;;22.85;15.65;;;;;;;10.36;86.45;97127.47;6308797;22;20009;-95
2021/09/08 05:47:29;;;;;;;26.15;14.30;;;;;;;10.28;85.13;97126.16;6309270;22;20063;-95
2021/09/08 05:49:54;;;;;;;25.50;13.80;;;;;;;10.38;84.95;97138.63;6308487;22;20038;-94
2021/09/08 05:52:20;;;;;;;26.52;14.85;;;;;;;10.45;85.71;97141.13;6308600;22;20003;-93
2021/09/08 05:54:46;;;;;;;29.48;14.98;;;;;;;10.36;86.59;97130.94;6308721;22;19995;-93
2021/09/08 05:57:12;;;;;;;30.23;16.40;;;;;;;10.43;86.74;97132.66;6308620;22;20431;-94
2021/09/08 05:59:37;;;;;;;23.23;15.93;;;;;;;10.51;87.45;97142.09;6308355;22;20007;-94
2021/09/08 06:02:03;;;;;;;25.48;15.48;;;;;;;10.36;86.96;97114.63;6307913;22;20003;-94
2021/09/08 06:04:28;;;;;;;25.35;14.82;;;;;;;10.61;86.94;97137.50;6308406;22;20003;-94
2021/09/08 06:06:55;;;;;;;29.48;14.25;;;;;;;10.56;86.54;97127.22;6308667;22;20104;-95
2021/09/08 06:09:21;;;;;;;31.15;15.10;;;;;;;10.50;87.20;97116.13;6308313;22;20003;-94
2021/09/08 06:11:47;;;;;;;25.17;14.73;;;;;;;10.58;86.89;97141.84;6308381;22;20003;-94
2021/09/08 06:14:13;;;;;;;25.05;15.18;;;;;;;10.66;87.10;97131.53;6308408;22;20007;-94
2021/09/08 06:16:39;;;;;;;23.48;14.90;;;;;;;10.68;87.95;97138.03;6308468;22;20011;-95
2021/09/08 06:19:05;;;;;;;25.13;16.13;;;;;;;10.89;89.24;97160.25;6308461;22;20003;-94
2021/09/08 06:21:31;;;;;;;23.85;14.75;;;;;;;10.75;88.21;97131.59;6308268;22;20007;-95
2021/09/08 06:23:56;;;;;;;24.15;14.63;;;;;;;10.83;88.36;97122.00;6308268;22;20019;-94
2021/09/08 06:26:23;;;;;;;23.23;14.23;;;;;;;10.92;88.36;97129.47;6308285;22;20003;-94
2021/09/08 06:28:51;;;;;;;20.00;13.10;;;;;;;10.89;88.19;97130.34;6308281;22;20007;-94
2021/09/08 06:31:18;;;;;;;23.48;14.82;;;;;;;10.95;89.18;97123.91;6301183;22;20439;-94
2021/09/08 06:33:43;;;;;;;24.42;16.27;;;;;;;11.06;88.38;97128.97;6251717;22;20068;-94
2021/09/08 06:36:09;;;;;;;23.15;14.68;;;;;;;11.07;87.67;97114.16;6251827;22;20086;-94
2021/09/08 06:38:34;;;;;;;23.05;15.70;;;;;;;11.09;87.59;97094.72;6251699;22;20336;-94
2021/09/08 06:41:01;;;;;;;26.20;14.98;;;;;;;11.21;87.57;97115.63;6250983;22;20112;-95
2021/09/08 06:43:27;;;;;;;18.95;14.15;;;;;;;11.35;87.35;97138.84;6251487;22;20030;-95
2021/09/08 06:45:53;;;;;;;23.30;13.73;;;;;;;11.25;88.02;97125.19;6251503;22;19996;-93
2021/09/08 06:48:18;;;;;;;20.85;14.27;;;;;;;11.19;86.74;97124.25;6251846;22;20057;-94
2021/09/08 06:50:44;;;;;;;20.70;14.35;;;;;;;11.12;89.74;97129.16;6251380;22;20006;-95
2021/09/08 06:53:10;;;;;;;23.60;13.52;;;;;;;11.00;89.72;97138.91;6251497;22;20003;-94
2021/09/08 06:55:35;;;;;;;18.38;13.40;;;;;;;10.98;90.18;97131.19;6251406;22;20038;-94
2021/09/08 06:58:01;;;;;;;25.35;13.18;;;;;;;11.24;88.29;97141.94;6251310;22;20087;-94
2021/09/08 07:00:26;;;;;;;17.60;13.05;;;;;;;11.34;88.55;97126.44;6251527;22;20063;-94
2021/09/08 07:02:52;;;;;;;20.50;13.45;;;;;;;11.23;88.72;97119.41;6251599;22;20065;-95
2021/09/08 07:05:19;;;;;;;19.45;13.93;;;;;;;11.19;88.67;97123.50;6251240;22;20000;-95
2021/09/08 07:07:44;;;;;;;18.25;13.35;;;;;;;11.35;87.69;97114.38;6251490;22;20008;-95
2021/09/08 07:10:10;;;;;;;24.25;13.32;;;;;;;11.50;87.57;97139.81;6251407;22;20056;-94
2021/09/08 07:12:35;;;;;;;19.08;11.77;;;;;;;11.43;87.02;97107.47;6251481;22;20011;-96
2021/09/08 07:15:01;;;;;;;15.18;11.90;;;;;;;11.68;86.75;97106.53;6251252;22;20483;-94
2021/09/08 07:17:26;;;;;;;15.20;12.23;;;;;;;11.74;86.79;97126.50;6251424;22;20003;-94
2021/09/08 07:19:52;;;;;;;17.33;12.52;;;;;;;11.71;86.19;97111.81;6251198;22;20339;-95
2021/09/08 07:22:18;;;;;;;16.50;11.73;;;;;;;12.00;85.99;97138.00;6251347;22;20034;-95
2021/09/08 07:24:44;;;;;;;16.02;11.23;;;;;;;11.90;85.77;97126.31;6251053;22;20007;-96
2021/09/08 07:27:10;;;;;;;16.75;12.43;;;;;;;11.93;85.34;97102.88;6251413;22;20019;-95
2021/09/08 07:29:36;;;;;;;17.48;11.77;;;;;;;12.00;85.79;97111.53;6251190;22;20428;-95
2021/09/08 07:32:02;;;;;;;15.73;12.55;;;;;;;11.99;85.54;97112.75;6281363;22;20015;-95
2021/09/08 07:34:28;;;;;;;15.88;12.80;;;;;;;12.02;85.09;97117.28;6307464;22;20011;-95
2021/09/08 07:36:53;;;;;;;17.05;12.18;;;;;;;12.22;84.33;97121.56;6307608;22;20003;-95
2021/09/08 07:39:19;;;;;;;16.08;12.35;;;;;;;12.09;84.76;97105.38;6307560;22;20034;-95
2021/09/08 07:41:45;;;;;;;19.48;14.45;;;;;;;12.04;84.96;97089.63;6307755;22;20359;-95
2021/09/08 07:44:10;;;;;;;17.63;13.43;;;;;;;12.19;84.88;97128.66;6307511;22;20003;-94
2021/09/08 07:46:36;;;;;;;17.17;12.88;;;;;;;12.09;84.08;97108.09;6307655;22;20007;-94
2021/09/08 07:49:02;;;;;;;16.05;13.32;;;;;;;12.07;84.57;97085.97;6307568;22;20011;-95
2021/09/08 07:51:27;;;;;;;16.98;12.93;;;;;;;12.04;84.19;97098.53;6307644;22;19999;-95
2021/09/08 07:53:53;;;;;;;20.77;13.93;;;;;;;12.12;84.45;97101.72;6307515;22;20367;-95
2021/09/08 07:56:19;;;;;;;16.90;12.38;;;;;;;12.19;84.39;97092.50;6307635;22;20007;-95
2021/09/08 07:58:45;;;;;;;17.70;12.68;;;;;;;12.36;84.42;97106.63;6307537;22;20042;-95
2021/09/08 08:01:10;;;;;;;18.90;13.13;;;;;;;12.35;84.13;97100.41;6307624;22;20065;-95
2021/09/08 08:03:37;;;;;;;17.80;11.82;;;;;;;12.43;83.91;97095.44;6307517;22;20013;-96
2021/09/08 08:06:03;;;;;;;18.40;13.30;;;;;;;12.35;83.79;97078.63;6307328;22;20010;-95
2021/09/08 08:08:28;;;;;;;16.23;13.27;;;;;;;12.52;83.90;97096.22;6307484;22;20030;-95
2021/09/08 08:10:53;;;;;;;17.73;13.00;;;;;;;12.67;83.99;97098.34;6307456;22;20127;-95
2021/09/08 08:13:19;;;;;;;17.55;12.20;;;;;;;12.79;83.42;97100.19;6307527;22;20068;-94
2021/09/08 08:15:45;;;;;;;16.55;11.93;;;;;;;12.60;83.43;97072.16;6307515;22;20004;-94
2021/09/08 08:21:32;;;;;;;16.92;11.70;;;;;;;12.92;82.62;97095.31;6308905;22;20014;-95
2021/09/08 08:23:58;;;;;;;13.45;11.68;;;;;;;13.05;82.74;97090.47;6307792;22;20007;-94
2021/09/08 08:26:23;;;;;;;15.80;12.25;;;;;;;13.09;82.45;97095.75;6307208;22;20073;-94
2021/09/08 08:28:49;;;;;;;15.80;11.77;;;;;;;13.17;82.29;97086.06;6307317;22;20065;-94
2021/09/08 08:31:15;;;;;;;18.65;13.95;;;;;;;13.34;82.00;97113.78;6307226;22;20018;-95
2021/09/08 08:33:40;;;;;;;20.00;14.00;;;;;;;13.28;81.92;97080.16;6307320;22;20351;-94
2021/09/08 08:36:06;;;;;;;24.58;14.45;;;;;;;13.53;81.75;97109.81;6307524;22;20023;-94
2021/09/08 08:38:31;;;;;;;21.25;14.00;;;;;;;13.45;81.87;97086.78;6307242;22;20011;-94
2021/09/08 08:40:57;;;;;;;19.92;13.43;;;;;;;13.56;81.58;97084.31;6307296;22;20003;-94
2021/09/08 08:43:23;;;;;;;20.05;13.93;;;;;;;13.63;81.51;97089.47;6307227;22;20343;-96
2021/09/08 08:45:49;;;;;;;21.77;14.02;;;;;;;13.53;81.55;97054.44;6308488;22;20010;-94
2021/09/08 08:48:14;;;;;;;17.45;12.43;;;;;;;13.97;80.68;97103.88;6309454;22;20098;-94
2021/09/08 08:50:40;;;;;;;17.50;11.93;;;;;;;14.05;79.68;97105.03;6309264;22;20034;-94
2021/09/08 08:53:06;;;;;;;19.45;12.10;;;;;;;13.93;79.81;97050.66;6309167;22;20060;-95
2021/09/08 08:55:32;;;;;;;17.35;12.32;;;;;;;14.07;79.36;97063.63;6309242;22;20004;-95
2021/09/08 08:57:59;;;;;;;18.77;12.25;;;;;;;14.19;79.74;97076.31;6309196;22;20006;-94
2021/09/08 09:00:25;;;;;;;16.23;12.05;;;;;;;14.24;77.64;97069.44;6309083;22;20003;-94
2021/09/08 09:02:54;;;;;;;15.38;11.27;;;;;;;14.19;78.15;97038.06;6309283;22;20010;-95
2021/09/08 09:05:31;;;;;;;15.30;11.50;;;;;;;14.61;77.24;97084.41;6309078;22;20027;-94
2021/09/08 09:07:57;;;;;;;15.88;11.63;;;;;;;14.62;78.37;97076.97;6309343;22;20014;-94
2021/09/08 09:10:23;;;;;;;16.00;10.88;;;;;;;14.78;78.40;97084.72;6309253;22;19999;-94
2021/09/08 09:12:48;;;;;;;14.38;9.18;;;;;;;14.72;76.44;97053.03;6309054;22;20007;-94
2021/09/08 09:15:20;;;;;;;12.25;8.77;;;;;;;14.78;75.65;97051.16;6308795;22;20328;-93
2021/09/08 09:17:46;;;;;;;15.43;9.18;;;;;;;15.06;75.23;97071.56;6308854;22;20007;-95
2021/09/08 09:20:18;;;;;;;12.05;8.90;;;;;;;15.18;74.32;97065.09;6308977;22;19999;-94
2021/09/08 09:22:51;;;;;;;10.70;8.10;;;;;;;15.27;73.54;97066.19;6309066;22;20317;-94
2021/09/08 09:25:22;;;;;;;11.60;8.60;;;;;;;15.22;72.76;97039.50;6309032;22;20003;-94
2021/09/08 09:27:59;;;;;;;12.65;8.25;;;;;;;15.30;73.75;97027.72;6309060;22;20482;-94
2021/09/08 09:30:27;;;;;;;9.35;7.10;;;;;;;15.60;72.87;97058.53;6309061;22;20335;-94
2021/09/08 09:32:56;;;;;;;12.60;8.60;;;;;;;15.45;70.57;97016.75;6308526;22;20436;-94
2021/09/08 09:35:25;;;;;;;12.27;9.13;;;;;;;15.77;72.63;97055.34;6308674;22;20007;-95
2021/09/08 09:37:56;;;;;;;9.77;8.30;;;;;;;15.84;71.33;97050.22;6308705;22;20007;-94
2021/09/08 09:40:33;;;;;;;12.55;8.65;;;;;;;15.79;70.32;97017.28;6308831;22;20007;-93
2021/09/08 09:43:04;;;;;;;10.60;7.90;;;;;;;15.80;70.04;97000.38;6308670;22;20011;-93
2021/09/08 09:45:34;;;;;;;10.93;8.93;;;;;;;16.08;70.89;97043.81;6308808;22;20030;-94
2021/09/08 09:48:01;;;;;;;10.70;7.40;;;;;;;16.14;70.34;97022.72;6308789;22;20435;-94
2021/09/08 09:50:27;;;;;;;10.40;7.78;;;;;;;16.12;67.69;97014.22;6308772;22;20087;-93
2021/09/08 09:52:53;;;;;;;13.95;7.93;;;;;;;16.14;67.94;97000.81;6308618;22;20389;-93
2021/09/08 09:55:23;;;;;;;11.20;7.68;;;;;;;16.37;69.38;97015.53;6308568;22;20076;-93
2021/09/08 09:57:50;;;;;;;10.70;7.03;;;;;;;16.32;67.90;96997.81;6308528;22;20014;-93
2021/09/08 10:00:17;;;;;;;13.68;7.85;;;;;;;16.43;67.09;97000.66;6308548;22;20007;-93
2021/09/08 10:02:44;;;;;;;13.07;7.32;;;;;;;16.60;65.57;97016.53;6308571;22;20334;-93
2021/09/08 10:05:11;;;;;;;9.52;6.63;;;;;;;16.40;65.72;96976.19;6308238;22;20060;-93
2021/09/08 10:07:37;;;;;;;12.43;6.93;;;;;;;16.47;65.37;96964.81;6308391;22;20013;-93
2021/09/08 10:10:12;;;;;;;10.18;6.05;;;;;;;16.79;64.99;97006.06;6308412;22;19999;-93
2021/09/08 10:12:44;;;;;;;8.90;6.10;;;;;;;16.62;66.37;96964.72;6308387;22;20040;-94
2021/09/08 10:15:14;;;;;;;9.63;6.40;;;;;;;16.87;64.50;96982.44;6308246;22;19999;-93
2021/09/08 10:18:03;;;;;;;7.97;6.15;;;;;;;17.09;64.30;96998.34;6308157;22;20007;-92
2021/09/08 10:20:29;;;;;;;8.90;6.47;;;;;;;16.96;64.03;96966.56;6308402;22;20029;-93
2021/09/08 10:22:54;;;;;;;10.60;6.72;;;;;;;17.03;63.23;96968.88;6307856;22;20007;-93
2021/09/08 10:25:22;;;;;;;7.43;6.30;;;;;;;17.34;62.64;96989.34;6308024;22;20006;-93
2021/09/08 10:27:55;;;;;;;9.98;6.30;;;;;;;17.36;62.44;96975.88;6308380;22;20007;-93
2021/09/08 10:30:24;;;;;;;8.63;6.70;;;;;;;17.57;63.79;96984.00;6308236;22;20009;-94
2021/09/08 10:32:53;;;;;;;8.73;6.00;;;;;;;17.69;61.96;96988.34;6313019;22;20015;-93
2021/09/08 10:35:20;;;;;;;8.43;6.33;;;;;;;17.83;64.17;96973.69;6310291;22;20046;-93
2021/09/08 10:37:47;;;;;;;8.50;4.72;;;;;;;18.00;69.70;96984.78;6310875;22;19999;-93
2021/09/08 10:40:14;;;;;;;13.77;7.05;;;;;;;17.97;63.84;96956.28;6313148;22;20416;-93
2021/09/08 10:42:53;;;;;;;7.93;5.30;;;;;;;18.29;70.99;96969.91;6307649;22;20007;-92
2021/09/08 10:45:22;;;;;;;8.63;5.00;;;;;;;18.41;69.59;96976.94;6307049;22;20073;-94
2021/09/08 10:47:48;;;;;;;5.75;5.07;;;;;;;18.54;68.47;96973.75;6307757;22;20026;-93
2021/09/08 10:50:13;;;;;;;7.60;5.43;;;;;;;18.72;66.12;96975.31;6307958;22;20008;-92
2021/09/08 10:52:42;;;;;;;6.13;4.78;;;;;;;18.82;71.41;96954.56;6333536;22;20007;-92
2021/09/08 10:55:16;;;;;;;10.05;6.78;;;;;;;18.82;61.70;96946.31;6307914;22;19995;-93
2021/09/08 10:57:41;;;;;;;6.60;5.43;;;;;;;19.10;64.26;96963.59;6307741;22;20003;-93
2021/09/08 11:00:08;;;;;;;8.15;5.55;;;;;;;19.09;62.34;96950.34;6307707;22;20036;-93
2021/09/08 11:02:44;;;;;;;6.72;5.15;;;;;;;19.24;55.60;96956.34;6307576;22;20007;-94
2021/09/08 11:05:11;;;;;;;6.40;5.43;;;;;;;19.40;60.10;96960.34;6313056;22;19995;-92
2021/09/08 11:07:41;;;;;;;6.28;5.05;;;;;;;19.55;59.44;96954.56;6311653;22;20014;-93
2021/09/08 11:10:08;;;;;;;8.43;5.90;;;;;;;19.56;56.67;96936.78;6311446;22;20003;-94
2021/09/08 11:12:48;;;;;;;8.52;6.20;;;;;;;19.71;55.05;96939.25;6307892;22;20003;-93
2021/09/08 11:15:18;;;;;;;9.57;5.80;;;;;;;19.77;57.02;96935.25;6307687;22;19995;-93
2021/09/08 11:17:51;;;;;;;8.25;6.18;;;;;;;19.87;57.34;96921.97;6307824;22;20000;-94
2021/09/08 11:20:17;;;;;;;9.30;6.38;;;;;;;19.95;57.22;96920.16;6307741;22;20078;-94
2021/09/08 11:22:42;;;;;;;11.60;6.25;;;;;;;20.04;57.01;96919.88;6307824;22;20053;-93
2021/09/08 11:25:11;;;;;;;8.00;5.70;;;;;;;20.15;54.81;96927.34;6307392;22;20009;-94
2021/09/08 11:27:38;;;;;;;6.90;5.65;;;;;;;20.33;51.52;96926.00;6307579;22;20376;-93